Time;durP1;ratioP1;P1;durP2;ratioP2;P2;SDS_P1;SDS_P2;PMS_P1;PMS_P2;Temp;Humidity;BMP_temperature;BMP_pressure;BME280_temperature;BME280_humidity;BME280_pressure;Samples;Min_cycle;Max_cycle;Signal;HPM_P1;HPM_P2
2023/11/20 00:02:42;;;;;;;1984.00;999.90;;;;;;;7.74;100.00;99842.77;106019;1291;73444;-57
2023/11/20 00:05:28;;;;;;;1996.40;999.90;;;;;;;7.75;100.00;99844.64;106005;1291;67580;-57
2023/11/20 00:08:14;;;;;;;1980.30;999.90;;;;;;;7.75;100.00;99845.32;106006;1291;72616;-57
2023/11/20 00:11:00;;;;;;;1999.10;999.90;;;;;;;7.76;100.00;99847.38;106025;1291;58350;-57
2023/11/20 00:13:46;;;;;;;1952.30;999.90;;;;;;;7.76;100.00;99850.45;106014;1292;59116;-57
2023/11/20 00:16:32;;;;;;;1002.40;904.50;;;;;;;7.77;100.00;99854.90;106035;1291;73704;-57
2023/11/20 00:19:18;;;;;;;1003.40;903.70;;;;;;;7.78;100.00;99855.05;106023;1292;68418;-57
2023/11/20 00:22:04;;;;;;;855.10;778.80;;;;;;;7.78;100.00;99858.30;106011;1292;72476;-58
2023/11/20 00:24:51;;;;;;;1854.40;999.90;;;;;;;7.79;100.00;99860.02;106009;1292;58539;-57
2023/11/20 00:27:37;;;;;;;1640.70;999.90;;;;;;;7.80;100.00;99863.95;106070;1291;58930;-57
2023/11/20 00:30:23;;;;;;;1768.20;999.90;;;;;;;7.80;100.00;99864.10;105992;1292;73550;-57
2023/11/20 00:33:09;;;;;;;1843.50;999.90;;;;;;;7.82;100.00;99862.85;106002;1292;67439;-57
2023/11/20 00:35:55;;;;;;;1810.50;999.90;;;;;;;7.83;100.00;99866.42;106056;1292;71374;-57
2023/11/20 00:38:42;;;;;;;1808.30;999.90;;;;;;;7.85;100.00;99868.29;101965;1291;5003163;-57
2023/11/20 00:41:31;;;;;;;1788.00;999.90;;;;;;;7.85;100.00;99869.98;105979;1293;60029;-56
2023/11/20 00:44:17;;;;;;;1754.30;999.90;;;;;;;7.86;100.00;99872.55;105969;1291;73762;-57
2023/11/20 00:47:03;;;;;;;1730.30;999.90;;;;;;;7.87;100.00;99872.02;106025;1293;67228;-57
2023/11/20 00:49:49;;;;;;;1705.30;999.90;;;;;;;7.87;100.00;99872.19;106013;1292;71175;-57
2023/11/20 00:52:35;;;;;;;1790.20;999.90;;;;;;;7.88;100.00;99873.20;105959;1292;58182;-57
2023/11/20 00:55:21;;;;;;;1718.00;999.90;;;;;;;7.89;100.00;99874.04;106011;1292;58422;-57
2023/11/20 00:58:07;;;;;;;1704.50;999.90;;;;;;;7.90;100.00;99873.52;105987;1291;73677;-57
2023/11/20 01:00:54;;;;;;;1690.60;999.90;;;;;;;7.91;100.00;99880.02;105994;1292;67361;-58
2023/11/20 01:03:40;;;;;;;1715.00;999.90;;;;;;;7.91;100.00;99880.53;105991;1291;72661;-57
2023/11/20 01:06:26;;;;;;;1678.90;999.90;;;;;;;7.93;100.00;99880.50;106050;1292;58737;-56
2023/11/20 01:09:12;;;;;;;1672.20;999.90;;;;;;;7.94;100.00;99883.05;106018;1292;59929;-57
2023/11/20 01:11:58;;;;;;;1629.50;999.90;;;;;;;7.96;100.00;99882.17;106012;1291;72619;-58
2023/11/20 01:14:45;;;;;;;1676.30;999.90;;;;;;;7.96;100.00;99884.23;106035;1291;68289;-58
2023/11/20 01:17:30;;;;;;;1751.70;999.90;;;;;;;7.97;100.00;99884.04;106045;1291;71885;-58
2023/11/20 01:20:16;;;;;;;1747.00;999.90;;;;;;;7.96;100.00;99885.08;106016;1292;58389;-57
2023/11/20 01:23:03;;;;;;;1680.90;999.90;;;;;;;7.96;100.00;99884.05;105987;1292;60164;-57
2023/11/20 01:25:49;;;;;;;1669.40;999.90;;;;;;;7.95;100.00;99879.43;105991;1292;73729;-57
2023/11/20 01:28:35;;;;;;;1699.30;999.90;;;;;;;7.95;100.00;99882.35;106029;1291;66364;-58
2023/11/20 01:31:21;;;;;;;1700.80;999.90;;;;;;;7.94;100.00;99880.47;106011;1291;71867;-56
2023/11/20 01:34:07;;;;;;;1733.90;999.90;;;;;;;7.94;100.00;99881.17;106011;1293;58500;-58
2023/11/20 01:36:53;;;;;;;1661.40;999.90;;;;;;;7.92;100.00;99879.48;106010;1294;60571;-57
2023/11/20 01:39:39;;;;;;;1641.50;999.90;;;;;;;7.90;100.00;99882.95;106006;1291;74450;-57
2023/11/20 01:42:25;;;;;;;1851.10;999.90;;;;;;;7.88;100.00;99881.60;106038;1292;68526;-57
2023/11/20 01:45:11;;;;;;;1892.00;999.90;;;;;;;7.87;100.00;99882.66;105995;1291;73161;-57
2023/11/20 01:47:57;;;;;;;1868.70;999.90;;;;;;;7.85;100.00;99881.66;106006;1291;58642;-57
2023/11/20 01:50:43;;;;;;;1995.20;999.90;;;;;;;7.85;100.00;99878.91;106038;1292;60100;-57
2023/11/20 01:53:31;;;;;;;784.40;711.20;;;;;;;7.84;100.00;99880.30;106017;1292;74271;-58
2023/11/20 01:56:17;;;;;;;767.80;696.00;;;;;;;7.83;100.00;99876.73;106005;1292;67173;-57
2023/11/20 01:59:06;;;;;;;717.10;653.60;;;;;;;7.82;100.00;99876.57;106003;1292;72253;-57
2023/11/20 02:01:53;;;;;;;739.60;675.60;;;;;;;7.80;100.00;99879.68;106036;1294;58244;-58
2023/11/20 02:04:41;;;;;;;735.60;669.20;;;;;;;7.80;100.00;99875.60;105975;1291;58918;-57
2023/11/20 02:07:27;;;;;;;762.00;693.00;;;;;;;7.80;100.00;99871.27;105999;1292;72526;-57
2023/11/20 02:10:13;;;;;;;749.10;682.00;;;;;;;7.80;100.00;99872.66;105979;1294;68512;-58
2023/11/20 02:13:00;;;;;;;767.20;699.60;;;;;;;7.79;100.00;99869.61;105976;1292;70204;-57
2023/11/20 02:15:45;;;;;;;;;;;;;;;7.80;100.00;99871.48;106021;1292;58626;-58
2023/11/20 02:18:34;;;;;;;1060.60;862.70;;;;;;;7.80;100.00;99871.13;106009;1292;58630;-57
2023/11/20 02:21:20;;;;;;;767.00;697.60;;;;;;;7.81;100.00;99870.77;105989;1292;72129;-57
2023/11/20 02:24:07;;;;;;;751.60;683.60;;;;;;;7.81;100.00;99866.83;105956;1293;68265;-57
2023/11/20 02:27:13;;;;;;;757.10;688.60;;;;;;;7.80;100.00;99868.02;105969;1295;72024;-58
2023/11/20 02:30:03;;;;;;;764.80;695.20;;;;;;;7.80;100.00;99865.29;105087;1294;60481;-57
2023/11/20 02:32:49;;;;;;;1093.30;884.70;;;;;;;7.79;100.00;99864.63;104617;1294;61149;-55
2023/11/20 02:35:36;;;;;;;858.70;767.30;;;;;;;7.78;100.00;99858.82;104596;1294;72554;-58
2023/11/20 02:38:22;;;;;;;974.70;804.80;;;;;;;7.78;100.00;99858.14;104609;1294;67810;-58
2023/11/20 02:41:09;;;;;;;918.20;782.90;;;;;;;7.77;100.00;99856.61;104546;1293;71230;-59
2023/11/20 02:43:55;;;;;;;1999.90;999.90;;;;;;;7.76;100.00;99854.40;104493;1293;60403;-59
2023/11/20 02:46:43;;;;;;;1999.90;999.90;;;;;;;7.75;100.00;99854.23;104530;1295;60691;-59
2023/11/20 02:49:30;;;;;;;1999.90;999.90;;;;;;;7.73;100.00;99856.33;104571;1292;72371;-59
2023/11/20 02:52:16;;;;;;;1004.30;890.20;;;;;;;7.73;100.00;99856.85;104557;1294;68871;-58
2023/11/20 02:55:03;;;;;;;;;;;;;;;7.73;100.00;99855.81;104571;1295;71207;-59
2023/11/20 02:57:49;;;;;;;733.10;673.90;;;;;;;7.73;100.00;99861.65;105972;1295;58180;-58
2023/11/20 03:00:35;;;;;;;790.90;727.60;;;;;;;7.74;100.00;99866.95;105999;1296;58804;-56
2023/11/20 03:03:20;;;;;;;761.70;699.90;;;;;;;7.74;100.00;99864.55;105918;1294;73293;-57
2023/11/20 03:06:07;;;;;;;783.50;720.30;;;;;;;7.74;100.00;99866.08;105941;1294;68840;-57
2023/11/20 03:08:53;;;;;;;770.30;707.70;;;;;;;7.75;100.00;99863.67;105867;1293;71735;-57
2023/11/20 03:11:39;;;;;;;696.70;642.20;;;;;;;7.76;100.00;99864.70;105932;1293;59466;-57
2023/11/20 03:14:25;;;;;;;724.90;667.40;;;;;;;7.77;100.00;99864.16;105966;1294;58852;-58
2023/11/20 03:17:11;;;;;;;714.50;657.00;;;;;;;7.77;100.00;99864.66;105973;1294;72414;-57
2023/11/20 03:19:56;;;;;;;703.50;648.70;;;;;;;7.76;100.00;99864.34;105971;1293;68421;-57
2023/11/20 03:22:43;;;;;;;726.90;669.70;;;;;;;7.76;100.00;99865.71;105985;1291;71195;-57
2023/11/20 03:25:28;;;;;;;718.20;661.50;;;;;;;7.76;100.00;99866.06;106012;1291;58529;-57
2023/11/20 03:28:15;;;;;;;711.00;655.20;;;;;;;7.76;100.00;99871.20;106022;1292;58826;-57
2023/11/20 03:31:01;;;;;;;708.60;651.30;;;;;;;7.76;100.00;99869.33;105989;1292;72630;-57
2023/11/20 03:33:47;;;;;;;696.40;640.80;;;;;;;7.75;100.00;99866.77;105995;1292;68319;-58
2023/11/20 03:36:35;;;;;;;727.40;669.30;;;;;;;7.75;100.00;99868.99;106022;1291;71628;-58
2023/11/20 03:39:20;;;;;;;710.10;653.20;;;;;;;7.75;100.00;99871.73;106003;1292;57543;-57
2023/11/20 03:42:06;;;;;;;723.80;665.00;;;;;;;7.75;100.00;99868.83;106022;1292;58759;-57
2023/11/20 03:44:52;;;;;;;721.80;663.00;;;;;;;7.76;100.00;99866.59;106033;1292;73089;-57
2023/11/20 03:47:38;;;;;;;784.70;719.90;;;;;;;7.78;100.00;99867.92;106019;1291;68563;-57
2023/11/20 03:50:24;;;;;;;771.70;706.80;;;;;;;7.78;100.00;99866.88;106017;1291;72160;-58
2023/11/20 03:53:10;;;;;;;786.80;720.20;;;;;;;7.79;100.00;99861.38;106013;1292;58201;-57
2023/11/20 03:55:56;;;;;;;738.00;675.50;;;;;;;7.80;100.00;99863.08;106080;1291;59443;-57
2023/11/20 03:58:44;;;;;;;790.80;723.80;;;;;;;7.81;100.00;99858.58;106045;1291;72316;-57
2023/11/20 04:01:30;;;;;;;791.70;725.60;;;;;;;7.81;100.00;99859.25;106041;1291;67459;-58
2023/11/20 04:04:16;;;;;;;776.40;711.00;;;;;;;7.82;100.00;99855.63;106028;1292;71401;-58
2023/11/20 04:07:02;;;;;;;759.30;697.50;;;;;;;7.82;100.00;99850.82;105996;1296;58424;-57
2023/11/20 04:09:48;;;;;;;734.00;675.10;;;;;;;7.83;100.00;99848.59;106029;1291;60747;-57
2023/11/20 04:12:34;;;;;;;715.30;655.70;;;;;;;7.83;100.00;99847.39;106026;1292;72548;-57
2023/11/20 04:15:20;;;;;;;702.30;644.00;;;;;;;7.83;100.00;99844.64;106006;1292;68250;-57
2023/11/20 04:18:06;;;;;;;754.40;692.20;;;;;;;7.82;100.00;99843.79;106000;1292;71265;-56
2023/11/20 04:20:51;;;;;;;714.30;655.00;;;;;;;7.82;100.00;99845.52;105988;1292;58169;-56
2023/11/20 04:23:38;;;;;;;732.50;672.30;;;;;;;7.83;100.00;99845.33;105991;1292;59231;-58
2023/11/20 04:26:24;;;;;;;727.50;667.50;;;;;;;7.83;100.00;99842.23;106026;1294;72306;-57
2023/11/20 04:29:10;;;;;;;740.90;678.60;;;;;;;7.84;100.00;99842.90;106027;1292;68368;-57
2023/11/20 04:31:56;;;;;;;758.80;695.80;;;;;;;7.84;100.00;99839.98;105990;1292;71911;-57
2023/11/20 04:34:42;;;;;;;732.80;670.50;;;;;;;7.84;100.00;99839.13;106025;1292;58574;-58
2023/11/20 04:37:28;;;;;;;737.80;675.20;;;;;;;7.84;100.00;99837.92;105987;1292;58834;-57
2023/11/20 04:40:14;;;;;;;717.70;656.80;;;;;;;7.86;100.00;99839.61;106014;1292;73695;-56
2023/11/20 04:43:00;;;;;;;716.20;656.70;;;;;;;7.86;100.00;99836.17;106044;1292;67202;-57
2023/11/20 04:45:46;;;;;;;697.20;639.50;;;;;;;7.85;100.00;99834.47;105656;1293;373153;-57
2023/11/20 04:48:33;;;;;;;703.30;646.10;;;;;;;7.86;100.00;99832.05;105958;1291;58930;-58
2023/11/20 04:51:22;;;;;;;714.90;656.00;;;;;;;7.86;100.00;99827.60;106020;1292;58860;-57
2023/11/20 04:54:08;;;;;;;730.90;670.40;;;;;;;7.85;100.00;99830.70;105930;1294;74002;-56
2023/11/20 04:56:56;;;;;;;;;;;;;;;7.85;100.00;99832.25;106004;1292;67191;-57
2023/11/20 04:59:43;;;;;;;557.80;511.00;;;;;;;7.83;100.00;99833.83;106015;1292;73280;-57
2023/11/20 05:02:29;;;;;;;692.30;634.00;;;;;;;7.83;100.00;99835.04;106005;1292;58324;-57
2023/11/20 05:05:15;;;;;;;718.10;657.20;;;;;;;7.83;100.00;99835.38;105940;1293;60080;-57
2023/11/20 05:08:01;;;;;;;727.00;667.50;;;;;;;7.84;100.00;99837.93;105968;1292;72435;-57
2023/11/20 05:10:47;;;;;;;728.10;669.00;;;;;;;7.84;100.00;99839.48;105968;1292;67306;-58
2023/11/20 05:13:33;;;;;;;732.30;671.30;;;;;;;7.83;100.00;99840.34;105946;1292;70393;-56
2023/11/20 05:16:19;;;;;;;732.60;670.70;;;;;;;7.84;100.00;99842.23;105944;1292;58078;-57
2023/11/20 05:19:05;;;;;;;771.90;707.30;;;;;;;7.84;100.00;99843.92;105990;1293;59546;-58
2023/11/20 05:21:51;;;;;;;743.40;680.80;;;;;;;7.86;100.00;99838.76;105978;1292;72420;-58
2023/11/20 05:24:39;;;;;;;761.00;698.20;;;;;;;7.87;100.00;99841.30;106017;1291;68383;-58
2023/11/20 05:27:25;;;;;;;752.20;689.30;;;;;;;7.88;100.00;99840.77;105963;1294;71434;-58
2023/11/20 05:30:12;;;;;;;789.50;722.50;;;;;;;7.89;100.00;99841.62;105964;1293;57890;-57
2023/11/20 05:32:59;;;;;;;783.20;716.50;;;;;;;7.89;100.00;99840.59;105971;1292;62336;-56
2023/11/20 05:35:44;;;;;;;;;;;;;;;7.89;100.00;99841.97;106051;1291;72497;-58
2023/11/20 05:38:30;;;;;;;843.50;772.40;;;;;;;7.88;100.00;99842.30;106041;1292;68553;-58
2023/11/20 05:41:16;;;;;;;889.90;812.90;;;;;;;7.89;100.00;99846.77;105973;1292;71374;-57
2023/11/20 05:44:03;;;;;;;908.60;830.10;;;;;;;7.88;100.00;99845.05;105986;1292;58050;-58
2023/11/20 05:46:49;;;;;;;;;;;;;;;7.87;100.00;99844.56;105923;1291;58222;-58
2023/11/20 05:49:36;;;;;;;803.60;736.80;;;;;;;7.87;100.00;99845.27;106020;1292;74204;-58
2023/11/20 05:52:22;;;;;;;856.00;781.50;;;;;;;7.86;100.00;99845.62;105985;1295;67515;-57
2023/11/20 05:55:08;;;;;;;842.70;770.00;;;;;;;7.86;100.00;99843.39;105989;1292;73308;-57
2023/11/20 05:57:56;;;;;;;869.90;795.50;;;;;;;7.86;100.00;99846.48;105972;1292;58480;-57
2023/11/20 06:00:42;;;;;;;886.30;809.60;;;;;;;7.86;100.00;99847.67;105990;1292;60270;-58
2023/11/20 06:03:28;;;;;;;862.60;787.20;;;;;;;7.86;100.00;99851.61;106026;1295;72634;-57
2023/11/20 06:06:20;;;;;;;873.70;799.30;;;;;;;7.85;100.00;99851.29;106041;1292;68632;-57
2023/11/20 06:09:10;;;;;;;858.80;786.00;;;;;;;7.85;100.00;99853.52;105994;1292;71150;-59
2023/11/20 06:11:56;;;;;;;862.70;788.90;;;;;;;7.85;100.00;99856.09;106023;1291;58234;-57
2023/11/20 06:14:42;;;;;;;848.60;776.10;;;;;;;7.84;100.00;99856.46;106058;1292;60174;-58
2023/11/20 06:17:28;;;;;;;852.30;780.10;;;;;;;7.84;100.00;99859.39;105974;1295;72398;-58
2023/11/20 06:20:14;;;;;;;847.30;777.10;;;;;;;7.83;100.00;99859.73;105917;1292;68694;-62
2023/11/20 06:23:01;;;;;;;810.90;745.30;;;;;;;7.83;100.00;99864.20;106035;1292;73674;-58
2023/11/20 06:25:47;;;;;;;833.20;763.80;;;;;;;7.84;100.00;99865.39;104983;1292;60397;-57
2023/11/20 06:28:33;;;;;;;828.60;759.30;;;;;;;7.83;100.00;99860.77;104650;1295;60271;-57
2023/11/20 06:31:19;;;;;;;;;;;;;;;7.83;100.00;99862.48;104632;1291;72571;-59
2023/11/20 06:34:05;;;;;;;;;;;;;;;7.82;100.00;99860.27;104643;1293;67230;-60
2023/11/20 06:36:51;;;;;;;;;;;;;;;7.82;100.00;99866.63;104618;1292;74025;-60
2023/11/20 06:39:38;;;;;;;611.00;562.40;;;;;;;7.81;100.00;99864.05;104592;1294;60733;-60
2023/11/20 06:42:24;;;;;;;797.20;733.80;;;;;;;7.82;100.00;99870.23;106003;1292;58949;-60
2023/11/20 06:45:11;;;;;;;819.70;751.90;;;;;;;7.82;100.00;99872.96;105553;1292;72578;-56
2023/11/20 06:47:57;;;;;;;831.50;762.10;;;;;;;7.82;100.00;99872.27;104614;1292;66231;-57
2023/11/20 06:50:44;;;;;;;871.10;797.50;;;;;;;7.84;100.00;99875.34;104644;1292;71374;-60
2023/11/20 06:53:31;;;;;;;871.60;797.00;;;;;;;7.85;100.00;99876.52;104654;1296;61033;-59
2023/11/20 06:56:20;;;;;;;870.10;795.20;;;;;;;7.87;100.00;99881.80;104554;1292;61017;-59
2023/11/20 06:59:06;;;;;;;890.80;814.50;;;;;;;7.89;100.00;99882.80;104658;1292;73865;-60
2023/11/20 07:01:52;;;;;;;888.90;813.40;;;;;;;7.90;100.00;99888.60;104687;1292;67186;-58
2023/11/20 07:04:44;;;;;;;889.00;813.90;;;;;;;7.93;100.00;99890.27;104714;1294;71622;-58
2023/11/20 07:07:30;;;;;;;896.00;819.80;;;;;;;7.95;100.00;99893.67;106054;1291;58106;-57
2023/11/20 07:10:22;;;;;;;887.60;810.40;;;;;;;7.98;100.00;99895.68;104667;1293;60292;-58
2023/11/20 07:13:08;;;;;;;883.50;807.40;;;;;;;8.03;100.00;99892.52;105687;1292;72576;-53
2023/11/20 07:15:54;;;;;;;904.60;825.10;;;;;;;8.06;100.00;99897.27;104718;1293;67176;-56
2023/11/20 07:18:40;;;;;;;889.50;811.50;;;;;;;8.09;100.00;99895.85;104719;1294;72162;-54
2023/11/20 07:21:26;;;;;;;;;;;;;;;8.12;100.00;99899.23;104712;1290;60600;-57
2023/11/20 07:24:14;;;;;;;840.60;770.40;;;;;;;8.15;100.00;99894.71;104691;1292;60326;-55
2023/11/20 07:27:00;;;;;;;795.30;729.90;;;;;;;8.18;100.00;99900.84;104679;1295;72388;-59
2023/11/20 07:29:47;;;;;;;773.30;709.30;;;;;;;8.19;100.00;99902.20;104738;1293;67317;-55
2023/11/20 07:32:36;;;;;;;771.80;708.30;;;;;;;8.23;100.00;99902.80;104797;1294;73053;-57
2023/11/20 07:35:23;;;;;;;797.50;731.80;;;;;;;8.26;100.00;99907.92;104639;1292;60452;-58
2023/11/20 07:38:09;;;;;;;754.80;691.10;;;;;;;8.32;100.00;99907.96;105567;1294;59028;-55
2023/11/20 07:40:55;;;;;;;800.00;734.90;;;;;;;8.36;100.00;99903.80;104739;1295;72492;-54
2023/11/20 07:43:42;;;;;;;813.30;745.40;;;;;;;8.40;100.00;99905.27;104725;1292;68181;-57
2023/11/20 07:46:29;;;;;;;831.10;762.30;;;;;;;8.43;100.00;99905.20;104698;1292;75414;-53
2023/11/20 07:49:15;;;;;;;803.10;732.40;;;;;;;8.51;100.00;99907.80;104724;1293;60475;-56
2023/11/20 07:52:02;;;;;;;817.20;745.80;;;;;;;8.57;100.00;99907.34;104696;1292;62337;-58
2023/11/20 07:54:48;;;;;;;836.20;762.60;;;;;;;8.62;100.00;99907.23;104703;1292;72441;-60
2023/11/20 07:57:34;;;;;;;828.70;757.40;;;;;;;8.63;100.00;99909.80;104763;1295;67921;-56
2023/11/20 08:00:21;;;;;;;830.60;758.60;;;;;;;8.69;100.00;99905.91;104649;1292;73213;-58
2023/11/20 08:03:08;;;;;;;844.50;770.80;;;;;;;8.80;100.00;99911.36;104779;1293;60524;-56
2023/11/20 08:05:55;;;;;;;841.40;768.20;;;;;;;8.88;100.00;99917.17;104687;1293;60479;-58
2023/11/20 08:08:41;;;;;;;828.60;757.90;;;;;;;8.96;100.00;99915.46;104711;1295;75241;-60
2023/11/20 08:11:27;;;;;;;856.20;781.40;;;;;;;9.00;100.00;99917.46;104613;1295;71360;-59
2023/11/20 08:14:15;;;;;;;833.70;760.60;;;;;;;9.04;100.00;99912.22;104623;1295;71718;-59
2023/11/20 08:17:02;;;;;;;841.70;769.10;;;;;;;9.07;100.00;99914.03;104694;1292;60479;-60
2023/11/20 08:19:49;;;;;;;857.00;780.30;;;;;;;9.19;100.00;99914.30;104721;1293;60305;-59
2023/11/20 08:22:37;;;;;;;881.20;805.60;;;;;;;9.24;100.00;99914.36;104658;1294;72490;-59
2023/11/20 08:25:24;;;;;;;848.40;773.50;;;;;;;9.29;100.00;99908.58;104678;1294;67567;-58
2023/11/20 08:28:10;;;;;;;845.90;772.20;;;;;;;9.36;100.00;99909.29;104699;1292;71594;-60
2023/11/20 08:30:57;;;;;;;883.40;806.60;;;;;;;9.38;100.00;99910.42;104691;1293;60478;-59
2023/11/20 08:33:43;;;;;;;858.60;783.80;;;;;;;9.41;100.00;99910.17;104722;1294;60427;-59
2023/11/20 08:36:30;;;;;;;856.60;781.70;;;;;;;9.39;100.00;99910.41;104717;1292;72461;-59
2023/11/20 08:39:15;;;;;;;848.80;776.20;;;;;;;9.37;100.00;99909.07;106091;1292;67454;-58
2023/11/20 08:42:02;;;;;;;806.80;736.70;;;;;;;9.43;100.00;99907.21;106107;1289;72566;-57
2023/11/20 08:44:49;;;;;;;849.90;776.20;;;;;;;9.45;100.00;99904.23;106108;1292;59464;-58
2023/11/20 08:47:35;;;;;;;836.90;764.00;;;;;;;9.44;100.00;99906.33;106084;1291;59947;-58
2023/11/20 08:50:25;;;;;;;856.40;781.50;;;;;;;9.45;100.00;99907.50;104746;1292;72550;-57
2023/11/20 08:53:11;;;;;;;822.80;749.80;;;;;;;9.48;100.00;99906.74;104719;1292;71588;-56
2023/11/20 08:55:58;;;;;;;860.40;784.50;;;;;;;9.50;100.00;99909.27;104694;1292;70249;-57
2023/11/20 08:58:44;;;;;;;824.20;750.70;;;;;;;9.52;100.00;99910.96;104713;1293;60678;-59
2023/11/20 09:01:33;;;;;;;847.20;771.60;;;;;;;9.50;100.00;99909.11;104691;1292;59327;-57
2023/11/20 09:04:19;;;;;;;846.90;771.50;;;;;;;9.53;100.00;99907.16;104614;1292;73288;-58
2023/11/20 09:07:05;;;;;;;838.80;763.90;;;;;;;9.52;100.00;99907.86;104655;1292;73689;-60
2023/11/20 09:09:52;;;;;;;869.20;793.00;;;;;;;9.47;100.00;99909.88;104714;1289;71201;-60
2023/11/20 09:12:39;;;;;;;856.80;782.30;;;;;;;9.44;100.00;99909.59;104646;1294;60906;-60
2023/11/20 09:15:26;;;;;;;837.20;764.90;;;;;;;9.44;100.00;99909.75;104579;1292;60895;-59
2023/11/20 09:18:13;;;;;;;840.50;765.10;;;;;;;9.46;100.00;99907.83;104720;1292;72564;-60
2023/11/20 09:21:02;;;;;;;851.80;777.80;;;;;;;9.48;100.00;99909.16;104550;1293;67272;-58
2023/11/20 09:23:48;;;;;;;835.10;760.20;;;;;;;9.49;100.00;99908.63;104688;1292;71176;-60
2023/11/20 09:26:35;;;;;;;883.80;800.00;;;;;;;9.56;100.00;99908.10;104651;1292;60438;-60
2023/11/20 09:29:22;;;;;;;944.20;860.20;;;;;;;9.63;100.00;99903.47;104557;1292;60501;-59
2023/11/20 09:32:08;;;;;;;943.00;859.50;;;;;;;9.59;100.00;99901.69;104558;1292;72438;-60
2023/11/20 09:34:54;;;;;;;931.00;847.90;;;;;;;9.54;100.00;99902.31;104631;1292;68096;-60
2023/11/20 09:37:41;;;;;;;908.50;828.20;;;;;;;9.55;100.00;99899.01;104608;1292;74053;-58
2023/11/20 09:40:27;;;;;;;888.80;811.00;;;;;;;9.56;100.00;99896.42;104602;1292;60379;-60
2023/11/20 09:43:15;;;;;;;883.10;804.80;;;;;;;9.61;100.00;99899.58;104573;1294;60377;-59
2023/11/20 09:46:07;;;;;;;892.10;813.70;;;;;;;9.68;100.00;99900.95;104584;1292;74126;-60
2023/11/20 09:48:56;;;;;;;869.90;792.50;;;;;;;9.72;100.00;99896.56;106015;1291;68680;-58
2023/11/20 09:51:43;;;;;;;897.50;817.20;;;;;;;9.80;100.00;99897.39;106017;1291;71416;-59
2023/11/20 09:54:34;;;;;;;894.50;815.80;;;;;;;9.86;100.00;99899.80;106059;1291;58298;-58
2023/11/20 09:57:24;;;;;;;850.80;774.70;;;;;;;9.88;100.00;99896.13;106037;1291;59457;-59
2023/11/20 10:00:15;;;;;;;923.10;843.10;;;;;;;9.89;100.00;99893.17;106071;1292;73368;-58
2023/11/20 10:03:02;;;;;;;884.50;806.50;;;;;;;9.93;100.00;99888.61;106047;1291;66253;-59
2023/11/20 10:05:50;;;;;;;891.90;812.30;;;;;;;9.99;100.00;99886.23;105974;1291;72393;-58
2023/11/20 10:08:40;;;;;;;906.00;824.50;;;;;;;10.07;100.00;99884.98;106029;1290;58802;-58
2023/11/20 10:11:28;;;;;;;921.60;841.50;;;;;;;10.11;100.00;99885.56;106068;1291;59671;-59
2023/11/20 10:14:19;;;;;;;875.40;798.80;;;;;;;10.17;100.00;99881.83;106080;1291;72969;-58
2023/11/20 10:17:07;;;;;;;913.40;832.80;;;;;;;10.23;100.00;99881.33;105925;1292;67068;-57
2023/11/20 10:19:53;;;;;;;897.60;817.20;;;;;;;10.25;100.00;99878.01;106081;1291;71468;-58
2023/11/20 10:22:40;;;;;;;919.90;838.20;;;;;;;10.32;100.00;99879.04;106087;1291;59319;-60
2023/11/20 10:25:26;;;;;;;900.00;821.20;;;;;;;10.35;100.00;99876.20;106114;1289;60143;-58
2023/11/20 10:28:14;;;;;;;;;;;;;;;10.34;100.00;99877.59;106123;1291;72465;-59
2023/11/20 10:31:01;;;;;;;916.20;835.60;;;;;;;10.38;100.00;99879.70;106000;1292;67483;-58
2023/11/20 10:34:00;;;;;;;907.70;826.20;;;;;;;10.45;100.00;99875.20;106072;1292;71425;-58
2023/11/20 10:37:04;;;;;;;893.30;813.30;;;;;;;10.51;100.00;99872.78;105891;1291;219385;-58
2023/11/20 10:39:50;;;;;;;909.80;829.20;;;;;;;10.48;99.92;99867.35;106081;1291;59126;-58
2023/11/20 10:42:36;;;;;;;892.80;811.40;;;;;;;10.47;100.00;99868.09;106103;1291;72613;-58
2023/11/20 10:45:25;;;;;;;925.10;842.50;;;;;;;10.51;100.00;99866.60;106076;1291;67344;-58
2023/11/20 10:48:12;;;;;;;874.70;794.90;;;;;;;10.55;99.99;99867.67;106065;1291;71380;-58
2023/11/20 10:51:05;;;;;;;880.90;798.00;;;;;;;10.71;100.00;99863.98;106095;1291;58219;-59
2023/11/20 10:54:14;;;;;;;913.70;827.50;;;;;;;10.91;99.87;99859.90;106110;1290;60736;-58
2023/11/20 10:57:05;;;;;;;932.30;842.20;;;;;;;11.06;99.53;99858.08;106058;1291;73722;-58
2023/11/20 10:59:55;;;;;;;958.40;862.40;;;;;;;11.09;98.09;99856.96;106055;1291;67936;-59
2023/11/20 11:02:42;;;;;;;946.10;853.00;;;;;;;11.16;99.23;99853.46;106050;1291;71270;-58
2023/11/20 11:05:29;;;;;;;958.30;864.40;;;;;;;11.22;99.76;99857.77;106062;1292;58530;-58
2023/11/20 11:08:17;;;;;;;941.80;849.60;;;;;;;11.32;99.95;99852.30;105974;1292;60236;-59
2023/11/20 11:11:04;;;;;;;942.40;848.90;;;;;;;11.30;97.96;99853.71;106035;1291;73613;-60
2023/11/20 11:13:50;;;;;;;944.30;853.40;;;;;;;11.25;98.73;99848.02;105134;1292;67732;-59
2023/11/20 11:16:46;;;;;;;;;;;;;;;11.06;95.72;99847.05;106098;1291;71295;-59
2023/11/20 11:19:45;;;;;;;957.70;871.90;;;;;;;11.01;98.74;99846.52;105421;1290;60596;-57
2023/11/20 11:22:35;;;;;;;913.50;830.90;;;;;;;10.99;98.48;99847.06;104622;1290;60396;-58
2023/11/20 11:25:28;;;;;;;890.90;810.40;;;;;;;10.98;98.79;99850.23;104675;1292;73412;-58
2023/11/20 11:28:19;;;;;;;908.80;827.00;;;;;;;10.91;99.81;99850.93;104697;1292;67191;-59
2023/11/20 11:31:08;;;;;;;873.40;796.20;;;;;;;10.77;98.49;99848.45;104718;1294;71478;-58
2023/11/20 11:34:18;;;;;;;876.10;798.60;;;;;;;10.67;97.22;99844.60;106066;1292;58607;-59
2023/11/20 11:37:35;;;;;;;833.10;759.70;;;;;;;10.61;99.19;99841.33;106108;1291;59217;-59
2023/11/20 11:40:30;;;;;;;856.40;782.10;;;;;;;10.65;99.85;99839.67;106086;1291;72468;-59
2023/11/20 11:43:27;;;;;;;825.70;753.20;;;;;;;10.60;99.90;99837.55;105415;1291;68794;-58
2023/11/20 11:46:13;;;;;;;816.60;747.30;;;;;;;10.56;99.63;99838.69;104777;1294;74065;-58
2023/11/20 11:49:22;;;;;;;830.10;760.20;;;;;;;10.49;98.48;99841.15;104740;1292;61011;-58
2023/11/20 11:52:09;;;;;;;821.60;752.10;;;;;;;10.46;99.94;99840.36;104566;1292;62622;-57
2023/11/20 11:55:19;;;;;;;797.70;731.60;;;;;;;10.43;100.00;99838.89;104707;1292;72795;-58
2023/11/20 11:58:13;;;;;;;797.80;731.30;;;;;;;10.40;100.00;99840.88;104668;1292;67213;-57
2023/11/20 12:01:15;;;;;;;795.50;728.60;;;;;;;10.37;99.98;99836.33;106061;1290;71151;-59
2023/11/20 12:04:01;;;;;;;809.20;742.30;;;;;;;10.33;100.00;99836.61;105259;1291;60526;-58
2023/11/20 12:07:03;;;;;;;774.70;709.90;;;;;;;10.28;100.00;99840.90;104749;1294;60482;-58
2023/11/20 12:09:56;;;;;;;793.20;726.40;;;;;;;10.22;100.00;99841.75;106018;1291;72587;-57
2023/11/20 12:12:46;;;;;;;805.10;737.50;;;;;;;10.15;100.00;99842.07;106125;1291;68884;-58
2023/11/20 12:15:42;;;;;;;766.60;702.70;;;;;;;10.10;100.00;99842.20;105492;1292;72613;-58
2023/11/20 12:18:33;;;;;;;758.40;694.70;;;;;;;10.08;100.00;99840.18;104827;1291;60475;-58
2023/11/20 12:21:20;;;;;;;762.30;698.50;;;;;;;10.09;100.00;99835.01;104790;1291;60223;-58
2023/11/20 12:24:07;;;;;;;738.40;675.00;;;;;;;10.14;100.00;99830.23;104784;1291;74723;-58
2023/11/20 12:26:57;;;;;;;739.90;676.30;;;;;;;10.29;100.00;99830.70;104961;1292;69057;-57